Time;durP1;ratioP1;P1;durP2;ratioP2;P2;SDS_P1;SDS_P2;PMS_P1;PMS_P2;Temp;Humidity;BMP_temperature;BMP_pressure;BME280_temperature;BME280_humidity;BME280_pressure;Samples;Min_cycle;Max_cycle;Signal;HPM_P1;HPM_P2
2022/08/01 00:00:42;;;;;;;4.68;4.25;;;18.40;94.20;;;;;;5075627;28;20480;-75
2022/08/01 00:03:07;;;;;;;4.32;3.78;;;18.40;94.30;;;;;;5109477;28;20055;-77
2022/08/01 00:05:33;;;;;;;5.82;3.38;;;18.50;94.40;;;;;;5092428;28;20038;-77
2022/08/01 00:07:59;;;;;;;4.55;3.30;;;18.40;94.50;;;;;;5075469;28;20457;-75
2022/08/01 00:10:25;;;;;;;6.10;3.22;;;18.40;94.40;;;;;;5075493;28;20127;-80
2022/08/01 00:12:51;;;;;;;5.05;3.50;;;18.40;94.50;;;;;;5109337;28;20055;-77
2022/08/01 00:15:17;;;;;;;4.25;3.65;;;18.40;94.30;;;;;;5109202;28;20044;-77
2022/08/01 00:17:43;;;;;;;4.60;3.28;;;18.40;94.10;;;;;;5109253;28;20126;-78
2022/08/01 00:20:12;;;;;;;4.97;3.88;;;18.40;94.10;;;;;;5109296;28;20536;-80
2022/08/01 00:22:38;;;;;;;4.82;4.32;;;18.40;93.90;;;;;;5109120;28;20569;-79
2022/08/01 00:25:05;;;;;;;5.35;3.78;;;18.40;93.90;;;;;;5109047;28;20077;-76
2022/08/01 00:27:31;;;;;;;5.85;3.78;;;18.40;93.70;;;;;;5109275;28;20040;-78
2022/08/01 00:29:57;;;;;;;5.55;3.70;;;18.40;93.70;;;;;;5075346;28;20049;-80
2022/08/01 00:32:23;;;;;;;6.25;4.25;;;18.40;93.60;;;;;;5091927;28;20123;-78
2022/08/01 00:34:49;;;;;;;10.60;5.00;;;18.40;93.30;;;;;;5075112;28;20130;-75
2022/08/01 00:37:14;;;;;;;6.07;4.15;;;18.40;93.20;;;;;;5108162;28;20252;-77
2022/08/01 00:39:40;;;;;;;8.45;5.05;;;18.30;93.10;;;;;;5109137;28;20032;-78
2022/08/01 00:42:07;;;;;;;5.20;4.40;;;18.30;93.10;;;;;;5108893;28;20441;-75
2022/08/01 00:44:34;;;;;;;6.72;4.88;;;18.30;93.20;;;;;;5108927;28;20035;-79
2022/08/01 00:46:59;;;;;;;6.60;4.45;;;18.30;93.10;;;;;;5108774;28;20483;-74
2022/08/01 00:49:25;;;;;;;6.00;4.55;;;18.30;93.20;;;;;;5108813;28;20126;-76
2022/08/01 00:51:51;;;;;;;8.07;4.03;;;18.20;93.20;;;;;;5075260;28;20101;-78
2022/08/01 00:54:16;;;;;;;6.78;4.20;;;18.20;93.10;;;;;;5108745;28;20036;-78
2022/08/01 00:56:43;;;;;;;8.02;3.50;;;18.20;93.00;;;;;;5075178;28;20046;-76
2022/08/01 00:59:10;;;;;;;7.70;3.92;;;18.30;93.00;;;;;;5108636;28;20119;-76
2022/08/01 01:01:36;;;;;;;8.30;4.03;;;18.20;92.80;;;;;;5108659;28;20044;-77
2022/08/01 01:04:02;;;;;;;7.30;3.40;;;18.20;92.80;;;;;;5108909;28;20044;-77
2022/08/01 01:07:05;;;;;;;4.25;2.85;;;18.20;92.90;;;;;;5074798;28;20400;-77
2022/08/01 01:09:52;;;;;;;8.20;3.88;;;18.10;93.00;;;;;;5108653;28;20599;-78
2022/08/01 01:12:28;;;;;;;5.25;2.47;;;18.10;92.90;;;;;;5108632;28;20044;-76
2022/08/01 01:15:06;;;;;;;5.80;3.00;;;18.20;92.80;;;;;;5108792;28;20046;-78
2022/08/01 01:17:55;;;;;;;5.07;2.80;;;18.10;92.70;;;;;;5074784;28;20036;-78
2022/08/01 01:20:27;;;;;;;5.85;2.80;;;18.10;92.70;;;;;;5108557;28;20101;-76
2022/08/01 01:22:53;;;;;;;4.72;3.17;;;18.10;92.70;;;;;;5108755;28;20499;-75
2022/08/01 01:25:37;;;;;;;5.43;2.67;;;18.00;92.70;;;;;;5108371;28;20071;-76
2022/08/01 01:28:41;;;;;;;9.40;3.75;;;18.10;92.60;;;;;;5108436;28;20511;-76
2022/08/01 01:31:10;;;;;;;4.18;2.47;;;18.10;92.60;;;;;;5110744;28;20047;-77
2022/08/01 01:33:39;;;;;;;5.43;2.70;;;18.00;92.60;;;;;;5111809;28;20094;-79
2022/08/01 01:36:08;;;;;;;8.45;3.00;;;18.00;92.40;;;;;;5111660;28;20059;-76
2022/08/01 01:38:44;;;;;;;6.47;2.88;;;18.00;92.30;;;;;;5078366;28;20052;-79
2022/08/01 01:41:12;;;;;;;9.82;4.43;;;18.00;92.40;;;;;;5077840;28;20135;-76
2022/08/01 01:43:39;;;;;;;7.75;3.45;;;18.00;92.30;;;;;;5094736;28;20092;-76
2022/08/01 01:46:07;;;;;;;10.30;2.90;;;18.00;92.40;;;;;;5094575;28;20078;-75
2022/08/01 01:48:35;;;;;;;7.47;2.60;;;18.00;92.50;;;;;;5096611;28;20036;-77
2022/08/01 01:51:01;;;;;;;7.88;2.88;;;18.00;92.30;;;;;;5081634;28;20058;-76
2022/08/01 01:53:29;;;;;;;10.35;2.88;;;18.00;92.30;;;;;;5098395;28;20479;-76
2022/08/01 01:55:57;;;;;;;8.32;2.90;;;18.00;92.20;;;;;;5098312;28;20126;-76
2022/08/01 01:58:25;;;;;;;11.75;3.45;;;18.00;92.10;;;;;;5115312;28;20079;-76
2022/08/01 02:00:53;;;;;;;10.50;3.50;;;18.00;92.10;;;;;;5098171;28;20043;-78
2022/08/01 02:03:20;;;;;;;14.25;3.97;;;18.00;92.10;;;;;;5115244;28;20118;-79
2022/08/01 02:05:47;;;;;;;11.85;3.30;;;18.00;92.00;;;;;;5081135;28;20039;-76
2022/08/01 02:08:16;;;;;;;9.90;3.25;;;18.00;92.00;;;;;;5098075;28;20067;-78
2022/08/01 02:11:17;;;;;;;11.57;3.63;;;17.90;92.00;;;;;;5115367;28;20040;-77
2022/08/01 02:13:36;;;;;;;12.55;3.70;;;17.90;92.10;;;;;;5097835;28;20122;-75
2022/08/01 02:16:03;;;;;;;10.93;3.63;;;17.90;92.10;;;;;;5115163;28;20153;-75
2022/08/01 02:18:29;;;;;;;9.93;3.00;;;17.90;91.90;;;;;;5114893;28;20036;-76
2022/08/01 02:20:57;;;;;;;10.00;3.78;;;17.90;92.10;;;;;;5114857;28;20046;-76
2022/08/01 02:23:28;;;;;;;10.80;3.65;;;17.90;92.10;;;;;;5098154;28;20423;-75
2022/08/01 02:25:57;;;;;;;12.32;4.03;;;17.90;92.10;;;;;;5097712;28;20081;-77
2022/08/01 02:28:34;;;;;;;10.63;4.10;;;17.90;92.10;;;;;;5097711;28;20046;-76
2022/08/01 02:31:06;;;;;;;15.30;3.83;;;17.80;92.20;;;;;;5114787;28;20042;-74
2022/08/01 02:33:39;;;;;;;8.07;3.55;;;17.90;92.30;;;;;;5114622;28;20054;-72
2022/08/01 02:36:06;;;;;;;10.98;4.20;;;17.90;92.00;;;;;;5097579;28;20069;-77
2022/08/01 02:38:36;;;;;;;7.97;3.33;;;17.80;92.00;;;;;;5080696;28;20118;-74
2022/08/01 02:41:08;;;;;;;11.00;3.20;;;17.80;92.10;;;;;;5114483;28;20384;-75
2022/08/01 02:43:38;;;;;;;13.93;3.58;;;17.80;92.10;;;;;;5097772;28;20441;-75
2022/08/01 02:46:05;;;;;;;10.40;3.60;;;17.80;92.20;;;;;;5097556;28;20035;-76
2022/08/01 02:48:34;;;;;;;11.55;3.65;;;17.80;92.20;;;;;;5080735;28;20505;-77
2022/08/01 02:51:01;;;;;;;10.85;3.67;;;17.80;92.30;;;;;;5097293;28;20035;-74
2022/08/01 02:53:32;;;;;;;9.93;3.45;;;17.80;92.10;;;;;;5114218;28;20100;-75
2022/08/01 02:55:59;;;;;;;10.95;3.50;;;17.80;92.20;;;;;;5097125;28;20047;-76
2022/08/01 02:58:26;;;;;;;9.00;2.97;;;17.80;92.10;;;;;;5114419;28;20373;-77
2022/08/01 03:00:52;;;;;;;13.15;3.28;;;17.70;91.90;;;;;;5096354;28;20138;-75
2022/08/01 03:03:19;;;;;;;8.98;3.58;;;17.70;91.90;;;;;;5080386;28;20498;-77
2022/08/01 03:05:45;;;;;;;7.63;3.08;;;17.70;92.00;;;;;;5096939;28;20086;-75
2022/08/01 03:08:13;;;;;;;9.27;3.85;;;17.70;91.90;;;;;;5080149;28;20028;-74
2022/08/01 03:10:44;;;;;;;12.45;4.03;;;17.70;91.60;;;;;;5096906;28;20068;-72
2022/08/01 03:13:10;;;;;;;8.23;3.35;;;17.70;91.40;;;;;;5113906;28;20043;-74
2022/08/01 03:15:39;;;;;;;13.27;3.67;;;17.70;91.60;;;;;;5113723;28;20059;-78
2022/08/01 03:18:08;;;;;;;11.70;3.55;;;17.70;91.50;;;;;;5080095;28;20047;-75
2022/08/01 03:20:34;;;;;;;6.85;3.28;;;17.70;91.50;;;;;;5096626;28;20051;-75
2022/08/01 03:23:07;;;;;;;12.23;4.55;;;17.70;91.30;;;;;;5096892;28;20509;-75
2022/08/01 03:25:36;;;;;;;11.48;3.47;;;17.70;91.30;;;;;;5113825;28;20388;-75
2022/08/01 03:28:03;;;;;;;10.52;4.15;;;17.70;91.40;;;;;;5079714;28;20043;-72
2022/08/01 03:30:30;;;;;;;11.43;3.40;;;17.60;91.20;;;;;;5079828;28;20047;-76
2022/08/01 03:32:57;;;;;;;13.07;3.63;;;17.60;91.20;;;;;;5096393;28;20135;-74
2022/08/01 03:35:28;;;;;;;15.95;4.10;;;17.60;91.10;;;;;;5096356;28;20519;-77
2022/08/01 03:37:55;;;;;;;15.48;4.28;;;17.60;91.00;;;;;;5096407;28;20073;-75
2022/08/01 03:40:33;;;;;;;12.32;3.80;;;17.50;91.10;;;;;;5113270;28;20084;-74
2022/08/01 03:43:05;;;;;;;13.52;3.85;;;17.50;91.20;;;;;;5113466;28;20065;-73
2022/08/01 03:45:38;;;;;;;16.40;4.22;;;17.50;91.30;;;;;;5113066;28;20097;-77
2022/08/01 03:48:13;;;;;;;12.38;3.78;;;17.50;90.90;;;;;;5096111;28;20043;-73
2022/08/01 03:50:43;;;;;;;14.93;3.70;;;17.50;90.70;;;;;;5096005;28;20055;-76
2022/08/01 03:53:10;;;;;;;11.70;3.22;;;17.50;90.60;;;;;;5095987;28;20039;-75
2022/08/01 03:55:37;;;;;;;10.20;2.67;;;17.40;90.30;;;;;;5112869;28;20448;-73
2022/08/01 03:58:04;;;;;;;11.63;3.17;;;17.50;90.10;;;;;;5079012;28;20051;-77
2022/08/01 04:00:30;;;;;;;9.95;3.15;;;17.40;89.90;;;;;;5078939;28;20044;-75
2022/08/01 04:02:56;;;;;;;14.02;3.33;;;17.40;89.70;;;;;;5095750;28;20518;-77
2022/08/01 04:05:22;;;;;;;19.05;4.00;;;17.30;89.10;;;;;;5096033;28;20039;-76
2022/08/01 04:07:55;;;;;;;16.92;4.28;;;17.30;89.00;;;;;;5112800;28;20040;-76
2022/08/01 04:10:25;;;;;;;14.60;3.22;;;17.30;89.20;;;;;;5112816;28;20055;-77
2022/08/01 04:12:51;;;;;;;13.85;3.53;;;17.30;89.20;;;;;;5112686;28;20047;-76
2022/08/01 04:15:18;;;;;;;12.00;3.17;;;17.20;89.40;;;;;;5095876;28;20062;-76
2022/08/01 04:17:43;;;;;;;14.32;4.30;;;17.20;89.30;;;;;;5095675;28;20048;-75
2022/08/01 04:20:10;;;;;;;11.52;3.60;;;17.20;89.10;;;;;;5078774;28;20051;-73
2022/08/01 04:22:37;;;;;;;7.50;2.67;;;17.20;88.90;;;;;;5095546;28;20039;-76
2022/08/01 04:25:09;;;;;;;12.23;3.25;;;17.20;88.80;;;;;;5112453;28;20039;-75
2022/08/01 04:27:38;;;;;;;11.15;3.25;;;17.20;88.80;;;;;;5095597;28;20036;-77
2022/08/01 04:30:06;;;;;;;21.95;3.78;;;17.20;88.80;;;;;;5112422;28;20495;-74
2022/08/01 04:32:35;;;;;;;14.60;4.28;;;17.20;88.90;;;;;;5078393;28;20132;-76
2022/08/01 04:35:06;;;;;;;17.20;3.92;;;17.20;89.00;;;;;;5095596;28;20403;-74
2022/08/01 04:37:33;;;;;;;16.23;4.05;;;17.20;88.90;;;;;;5112378;28;20100;-74
2022/08/01 04:40:00;;;;;;;10.70;3.15;;;17.20;88.80;;;;;;5095442;28;20544;-76
2022/08/01 04:42:27;;;;;;;12.68;3.17;;;17.20;88.80;;;;;;5112300;28;20043;-76
2022/08/01 04:44:53;;;;;;;11.38;2.53;;;17.10;88.80;;;;;;5095170;28;20122;-74
2022/08/01 04:47:20;;;;;;;11.32;3.28;;;17.20;88.70;;;;;;5112221;28;20067;-74
2022/08/01 04:49:46;;;;;;;13.85;3.92;;;17.20;88.70;;;;;;5112407;28;20101;-73
2022/08/01 04:52:12;;;;;;;10.10;3.03;;;17.20;88.40;;;;;;5112139;28;20457;-74
2022/08/01 04:54:37;;;;;;;11.68;3.47;;;17.20;88.20;;;;;;5112190;28;20039;-75
2022/08/01 04:57:07;;;;;;;10.88;3.10;;;17.20;88.00;;;;;;5112316;28;20040;-74
2022/08/01 04:59:40;;;;;;;17.35;3.35;;;17.10;87.90;;;;;;5111966;28;20043;-76
2022/08/01 05:02:11;;;;;;;18.52;3.88;;;17.10;88.00;;;;;;5095055;28;20089;-75
2022/08/01 05:04:38;;;;;;;17.05;4.30;;;17.10;88.10;;;;;;5112053;28;20039;-77
2022/08/01 05:07:04;;;;;;;19.70;3.50;;;17.10;88.10;;;;;;5095002;28;20092;-78
2022/08/01 05:09:30;;;;;;;14.85;3.22;;;17.10;88.20;;;;;;5095064;28;20071;-73
2022/08/01 05:11:58;;;;;;;21.83;3.90;;;17.10;88.20;;;;;;5111963;28;20085;-74
2022/08/01 05:14:25;;;;;;;15.90;4.78;;;17.10;88.20;;;;;;5095253;28;20122;-74
2022/08/01 05:16:51;;;;;;;12.85;3.78;;;17.10;88.10;;;;;;5111786;28;20048;-73
2022/08/01 05:19:17;;;;;;;15.85;3.95;;;17.10;88.20;;;;;;5111877;28;20499;-73
2022/08/01 05:21:43;;;;;;;17.20;3.75;;;17.10;88.20;;;;;;5112200;28;20079;-75
2022/08/01 05:24:09;;;;;;;14.55;3.80;;;17.10;88.30;;;;;;5097716;28;20035;-75
2022/08/01 05:26:35;;;;;;;15.25;3.53;;;17.10;88.30;;;;;;5081965;28;20044;-74
2022/08/01 05:29:00;;;;;;;16.25;4.28;;;17.10;88.40;;;;;;5099228;28;20035;-74
2022/08/01 05:31:26;;;;;;;17.90;4.35;;;17.10;88.50;;;;;;5115820;28;20404;-76
2022/08/01 05:33:52;;;;;;;16.55;5.18;;;17.10;88.50;;;;;;5116038;28;20500;-75
2022/08/01 05:36:17;;;;;;;14.38;4.35;;;17.10;88.60;;;;;;5115900;28;20372;-72
2022/08/01 05:38:43;;;;;;;11.18;3.97;;;17.20;88.70;;;;;;5115966;28;20039;-77
2022/08/01 05:41:10;;;;;;;12.80;4.35;;;17.20;88.60;;;;;;5115570;28;20086;-75
2022/08/01 05:43:36;;;;;;;13.90;3.92;;;17.20;88.50;;;;;;5098585;28;20048;-75
2022/08/01 05:46:01;;;;;;;16.48;4.47;;;17.20;88.30;;;;;;5115440;28;20057;-76
2022/08/01 05:48:27;;;;;;;21.05;3.78;;;17.20;88.10;;;;;;5115747;28;20032;-76
2022/08/01 05:50:54;;;;;;;16.33;4.47;;;17.20;87.90;;;;;;5115473;28;20096;-73
2022/08/01 05:53:20;;;;;;;13.23;4.07;;;17.20;87.60;;;;;;5098667;28;20083;-73
2022/08/01 05:55:45;;;;;;;17.60;4.30;;;17.30;87.50;;;;;;5115536;28;20074;-76
2022/08/01 05:58:11;;;;;;;17.20;3.92;;;17.30;87.50;;;;;;5115345;28;20403;-76
2022/08/01 06:00:37;;;;;;;8.85;3.17;;;17.40;87.20;;;;;;5115194;28;20046;-76
2022/08/01 06:03:02;;;;;;;12.23;3.13;;;17.40;87.10;;;;;;5081505;28;20067;-77
2022/08/01 06:05:28;;;;;;;11.68;4.00;;;17.40;86.70;;;;;;5081212;28;20036;-77
2022/08/01 06:07:54;;;;;;;20.13;3.70;;;17.50;86.70;;;;;;5115207;28;20096;-77
2022/08/01 06:10:20;;;;;;;9.88;3.10;;;17.40;86.50;;;;;;5098174;28;20052;-76
2022/08/01 06:12:45;;;;;;;16.60;3.55;;;17.40;86.50;;;;;;5115057;28;20053;-77
2022/08/01 06:15:11;;;;;;;14.77;3.83;;;17.50;86.40;;;;;;5115209;28;20044;-75
2022/08/01 06:17:37;;;;;;;16.38;3.53;;;17.50;86.20;;;;;;5097945;28;20082;-77
2022/08/01 06:20:03;;;;;;;12.85;3.75;;;17.50;86.10;;;;;;5115059;28;20084;-76
2022/08/01 06:22:29;;;;;;;14.27;3.80;;;17.60;85.90;;;;;;5114938;28;20046;-77
2022/08/01 06:24:55;;;;;;;12.82;3.53;;;17.70;85.50;;;;;;5114762;28;20040;-74
2022/08/01 06:27:21;;;;;;;12.75;3.22;;;17.60;85.10;;;;;;5097790;28;20054;-76
2022/08/01 06:29:47;;;;;;;12.02;3.17;;;17.60;84.70;;;;;;5080935;28;20697;-77
2022/08/01 06:32:12;;;;;;;14.25;3.20;;;17.50;84.70;;;;;;5114690;28;20059;-77
2022/08/01 06:34:38;;;;;;;9.88;2.90;;;17.50;84.20;;;;;;5096421;28;20118;-77
2022/08/01 06:37:04;;;;;;;12.32;3.00;;;17.50;84.10;;;;;;5114568;28;20047;-76
2022/08/01 06:39:29;;;;;;;15.60;3.38;;;17.50;84.00;;;;;;5080740;28;20126;-74
2022/08/01 06:41:55;;;;;;;11.85;3.00;;;17.50;83.60;;;;;;5114466;28;20050;-75
2022/08/01 06:44:21;;;;;;;11.80;2.95;;;17.50;83.30;;;;;;5114422;28;20036;-76
2022/08/01 06:46:46;;;;;;;11.57;2.60;;;17.50;83.40;;;;;;5114321;28;20038;-77
2022/08/01 06:49:12;;;;;;;15.38;3.00;;;17.50;83.10;;;;;;5097370;28;20039;-76
2022/08/01 06:51:38;;;;;;;13.15;3.35;;;17.50;83.10;;;;;;5114517;28;20075;-77
2022/08/01 06:54:03;;;;;;;12.55;3.40;;;17.60;82.90;;;;;;5114502;28;20039;-75
2022/08/01 06:56:29;;;;;;;10.80;2.47;;;17.60;82.80;;;;;;5114392;28;20557;-76
2022/08/01 06:59:00;;;;;;;8.25;2.47;;;17.70;82.20;;;;;;5114138;28;20474;-75
2022/08/01 07:01:27;;;;;;;10.35;2.83;;;17.80;82.00;;;;;;5114116;28;20036;-76
2022/08/01 07:03:53;;;;;;;12.63;3.03;;;17.80;81.70;;;;;;5097049;28;20044;-77
2022/08/01 07:06:19;;;;;;;8.10;2.85;;;17.80;81.70;;;;;;5114258;28;20089;-76
2022/08/01 07:08:45;;;;;;;11.25;3.47;;;17.90;82.10;;;;;;5114244;28;20487;-76
2022/08/01 07:11:10;;;;;;;12.35;2.58;;;17.90;82.00;;;;;;5114436;28;20494;-76
2022/08/01 07:13:36;;;;;;;10.15;3.10;;;18.00;81.60;;;;;;5113837;28;20047;-77
2022/08/01 07:16:02;;;;;;;10.98;2.75;;;18.00;81.20;;;;;;5113720;28;20058;-77
2022/08/01 07:18:27;;;;;;;9.35;2.25;;;18.10;81.40;;;;;;5113719;28;20040;-76
2022/08/01 07:20:53;;;;;;;10.20;2.65;;;18.20;80.80;;;;;;5113790;28;20048;-77
2022/08/01 07:23:19;;;;;;;10.68;3.10;;;18.20;80.40;;;;;;5079830;28;20031;-75
2022/08/01 07:25:44;;;;;;;8.18;2.45;;;18.30;80.20;;;;;;5113559;28;20173;-77
2022/08/01 07:28:10;;;;;;;9.10;2.22;;;18.40;79.50;;;;;;5079714;28;20043;-78
2022/08/01 07:30:36;;;;;;;12.98;2.70;;;18.40;79.40;;;;;;5113516;28;20044;-75
2022/08/01 07:33:02;;;;;;;11.30;2.45;;;18.50;79.20;;;;;;5109960;28;20083;-78
2022/08/01 07:35:28;;;;;;;8.82;2.15;;;18.50;79.20;;;;;;5109963;28;20491;-77
2022/08/01 07:37:53;;;;;;;11.93;2.60;;;18.60;78.50;;;;;;5110019;28;20044;-77
2022/08/01 07:40:19;;;;;;;6.72;2.60;;;18.60;78.40;;;;;;5076094;28;20048;-78
2022/08/01 07:42:46;;;;;;;12.32;2.67;;;18.70;77.90;;;;;;5109853;28;20072;-74
2022/08/01 07:45:13;;;;;;;12.02;2.55;;;18.70;77.60;;;;;;5076058;28;20479;-75
2022/08/01 07:47:39;;;;;;;7.82;2.63;;;18.80;77.90;;;;;;5109611;28;20036;-76
2022/08/01 07:50:06;;;;;;;10.23;2.75;;;18.80;76.30;;;;;;5092790;28;20051;-79
2022/08/01 07:52:31;;;;;;;11.15;2.40;;;18.90;76.30;;;;;;5109992;28;20066;-77
2022/08/01 07:54:58;;;;;;;7.75;2.03;;;18.90;76.20;;;;;;5109659;28;20476;-78
2022/08/01 07:57:24;;;;;;;8.23;2.97;;;18.90;76.20;;;;;;5109814;28;20059;-77
2022/08/01 07:59:51;;;;;;;7.45;1.98;;;19.00;75.20;;;;;;5109760;28;20044;-77
2022/08/01 08:02:17;;;;;;;10.23;3.38;;;19.00;75.10;;;;;;5109827;28;20040;-74
2022/08/01 08:04:43;;;;;;;7.68;2.10;;;19.10;75.00;;;;;;5109465;28;20389;-75
2022/08/01 08:07:09;;;;;;;8.60;2.08;;;19.20;74.30;;;;;;5109717;28;20055;-76
2022/08/01 08:09:34;;;;;;;8.15;2.47;;;19.30;74.50;;;;;;5109622;28;20391;-76
2022/08/01 08:12:00;;;;;;;9.13;2.13;;;19.40;74.60;;;;;;5109581;28;20082;-78
2022/08/01 08:14:26;;;;;;;6.05;2.10;;;19.50;74.30;;;;;;5075462;28;20545;-76
2022/08/01 08:16:52;;;;;;;6.25;2.15;;;19.50;73.40;;;;;;5109233;28;20044;-76
2022/08/01 08:19:18;;;;;;;6.20;1.95;;;19.60;73.80;;;;;;5109254;28;20032;-78
2022/08/01 08:21:44;;;;;;;9.77;2.30;;;19.60;73.70;;;;;;5075374;28;20119;-76
2022/08/01 08:24:19;;;;;;;9.63;2.00;;;19.50;73.70;;;;;;5109183;28;20467;-77
2022/08/01 08:26:45;;;;;;;6.65;2.05;;;19.60;73.20;;;;;;5109283;28;20439;-76
2022/08/01 08:29:11;;;;;;;7.72;2.17;;;19.70;73.60;;;;;;5109150;28;20032;-77
2022/08/01 08:31:36;;;;;;;10.18;2.75;;;19.70;72.30;;;;;;5108976;28;20056;-78
2022/08/01 08:34:02;;;;;;;14.35;2.75;;;19.70;72.00;;;;;;5109388;28;20047;-76
2022/08/01 08:36:28;;;;;;;8.15;2.75;;;19.70;72.30;;;;;;5109194;28;20032;-75
2022/08/01 08:38:54;;;;;;;9.35;2.47;;;19.90;72.70;;;;;;5091955;28;20039;-74
2022/08/01 08:41:21;;;;;;;10.52;2.47;;;20.00;72.30;;;;;;5108880;28;20407;-76
2022/08/01 08:43:48;;;;;;;6.25;1.95;;;20.00;71.10;;;;;;5109150;28;20036;-79
2022/08/01 08:46:14;;;;;;;11.32;2.90;;;20.00;71.40;;;;;;5075429;28;20143;-76
2022/08/01 08:48:41;;;;;;;9.80;2.22;;;20.00;71.00;;;;;;5092144;28;20055;-77
2022/08/01 08:51:08;;;;;;;6.82;2.58;;;20.00;70.10;;;;;;5108813;28;20051;-75
2022/08/01 08:53:35;;;;;;;11.77;2.42;;;20.00;69.70;;;;;;5108969;28;20053;-80
2022/08/01 08:56:02;;;;;;;5.95;2.15;;;20.00;68.40;;;;;;5108694;28;20075;-76
2022/08/01 08:58:28;;;;;;;7.03;1.70;;;19.90;68.90;;;;;;5091046;28;20044;-77
2022/08/01 09:00:54;;;;;;;6.63;1.90;;;20.00;69.80;;;;;;5058297;28;20036;-78
2022/08/01 09:03:20;;;;;;;4.65;1.88;;;19.90;70.40;;;;;;5108705;28;20044;-76
2022/08/01 09:05:46;;;;;;;5.90;1.40;;;20.00;69.80;;;;;;5108665;28;20051;-75
2022/08/01 09:08:12;;;;;;;5.93;1.80;;;20.00;70.10;;;;;;5075058;28;20047;-77
2022/08/01 09:10:38;;;;;;;6.78;2.75;;;20.10;69.70;;;;;;5108609;28;20040;-77
2022/08/01 09:13:10;;;;;;;7.57;1.98;;;20.30;69.60;;;;;;5108890;28;20040;-75
2022/08/01 09:15:53;;;;;;;8.23;1.73;;;20.20;69.70;;;;;;5108547;28;20052;-76
2022/08/01 09:18:34;;;;;;;8.38;1.73;;;20.20;68.60;;;;;;5108820;28;20437;-78
2022/08/01 09:21:08;;;;;;;6.00;1.58;;;20.40;68.10;;;;;;5108496;28;20131;-77
2022/08/01 09:23:44;;;;;;;9.50;1.90;;;20.40;67.80;;;;;;5108495;28;20123;-75
2022/08/01 09:26:10;;;;;;;6.15;1.58;;;20.40;67.70;;;;;;5108448;28;20186;-76
2022/08/01 09:28:37;;;;;;;6.93;1.58;;;20.30;66.90;;;;;;5108419;28;20040;-77
2022/08/01 09:31:07;;;;;;;8.38;2.22;;;20.30;67.10;;;;;;5108422;28;20055;-76
2022/08/01 09:33:56;;;;;;;6.47;1.60;;;20.40;67.00;;;;;;5108684;28;20067;-77
2022/08/01 09:36:25;;;;;;;8.88;1.85;;;20.50;66.90;;;;;;5108555;28;20040;-78
2022/08/01 09:38:52;;;;;;;6.63;1.75;;;20.60;67.00;;;;;;5108600;28;20108;-78
2022/08/01 09:41:29;;;;;;;10.20;1.88;;;20.70;66.20;;;;;;5108311;28;20040;-76
2022/08/01 09:43:55;;;;;;;6.32;2.15;;;20.80;66.40;;;;;;5074547;28;20145;-80
2022/08/01 09:46:21;;;;;;;8.80;1.50;;;20.90;66.20;;;;;;5108312;28;20052;-75
2022/08/01 09:49:04;;;;;;;4.78;1.45;;;20.90;64.70;;;;;;5108260;28;20036;-76
2022/08/01 09:51:35;;;;;;;5.45;1.85;;;20.90;65.50;;;;;;5091582;28;20391;-76
2022/08/01 09:54:06;;;;;;;5.35;1.42;;;20.90;65.90;;;;;;5108431;28;20036;-76
2022/08/01 09:56:42;;;;;;;6.95;1.98;;;20.80;65.50;;;;;;5108431;28;20047;-79
2022/08/01 09:59:09;;;;;;;6.40;2.22;;;20.90;65.30;;;;;;5108176;28;20040;-78
2022/08/01 10:01:50;;;;;;;10.00;2.28;;;21.00;64.40;;;;;;5108003;28;20043;-78
2022/08/01 10:04:18;;;;;;;6.07;1.58;;;21.10;63.80;;;;;;5057972;28;20048;-76
2022/08/01 10:06:49;;;;;;;8.57;1.60;;;21.20;63.20;;;;;;5107989;28;20040;-76
2022/08/01 10:09:23;;;;;;;4.32;1.45;;;21.20;62.90;;;;;;5109475;28;20388;-77
2022/08/01 10:11:49;;;;;;;8.15;1.67;;;21.40;62.90;;;;;;5112004;28;20404;-77
2022/08/01 10:14:16;;;;;;;5.55;1.40;;;21.50;62.60;;;;;;5061475;28;20050;-76
2022/08/01 10:16:42;;;;;;;7.20;1.88;;;21.50;58.90;;;;;;5111513;28;20050;-74
2022/08/01 10:19:08;;;;;;;7.97;1.80;;;21.50;59.70;;;;;;5077703;28;20043;-77
2022/08/01 10:21:36;;;;;;;6.88;1.58;;;21.70;59.90;;;;;;5111513;28;20044;-78
2022/08/01 10:24:04;;;;;;;5.82;1.42;;;21.70;58.20;;;;;;5111464;28;20095;-78
2022/08/01 10:26:33;;;;;;;4.65;1.63;;;21.80;58.90;;;;;;5111329;28;20044;-74
2022/08/01 10:28:59;;;;;;;6.70;1.60;;;21.80;59.30;;;;;;5111393;28;20040;-78
2022/08/01 10:31:25;;;;;;;7.68;1.63;;;22.00;59.30;;;;;;5114099;28;20071;-77
2022/08/01 10:33:52;;;;;;;7.05;1.70;;;22.10;59.90;;;;;;5114658;28;20047;-77
2022/08/01 10:36:20;;;;;;;6.65;1.40;;;22.00;59.20;;;;;;5114613;28;20047;-75
2022/08/01 10:38:47;;;;;;;8.25;1.20;;;21.90;56.70;;;;;;5097707;28;20055;-76
2022/08/01 10:41:15;;;;;;;7.63;1.98;;;21.90;56.10;;;;;;5097474;28;20043;-76
2022/08/01 10:43:41;;;;;;;5.55;1.35;;;21.90;57.20;;;;;;5114485;28;20032;-77
2022/08/01 10:46:07;;;;;;;7.40;1.40;;;21.90;56.80;;;;;;5097332;28;20044;-78
2022/08/01 10:48:47;;;;;;;6.93;1.73;;;21.80;57.10;;;;;;5114718;28;20055;-77
2022/08/01 10:51:15;;;;;;;5.00;1.50;;;21.90;58.40;;;;;;5097394;28;20039;-76
2022/08/01 10:53:53;;;;;;;10.82;2.10;;;21.90;57.90;;;;;;5114278;28;20047;-78
2022/08/01 10:56:20;;;;;;;6.20;1.70;;;21.90;57.50;;;;;;5114528;28;20373;-76
2022/08/01 10:58:48;;;;;;;6.30;1.40;;;21.90;56.40;;;;;;5114238;28;20048;-77
2022/08/01 11:01:13;;;;;;;6.93;1.90;;;21.90;57.10;;;;;;5097171;28;20445;-77
2022/08/01 11:03:39;;;;;;;6.53;1.55;;;21.90;58.20;;;;;;5114133;28;20123;-75
2022/08/01 11:06:05;;;;;;;6.22;1.33;;;22.00;56.90;;;;;;5114085;28;20046;-79
2022/08/01 11:08:34;;;;;;;7.82;1.73;;;22.00;56.60;;;;;;5080892;28;20040;-77
2022/08/01 11:11:04;;;;;;;5.13;1.38;;;22.10;56.60;;;;;;5114385;28;20507;-78
2022/08/01 11:13:58;;;;;;;6.40;1.20;;;22.10;57.00;;;;;;5080085;28;20051;-76
2022/08/01 11:16:28;;;;;;;7.10;1.30;;;22.20;56.20;;;;;;5114063;28;20391;-76
2022/08/01 11:18:54;;;;;;;4.32;1.20;;;22.20;55.60;;;;;;5113907;28;20048;-77
2022/08/01 11:21:23;;;;;;;7.25;1.63;;;22.30;55.40;;;;;;5113067;28;20043;-75
2022/08/01 11:23:53;;;;;;;4.43;1.42;;;22.40;55.00;;;;;;5080568;28;20043;-77
2022/08/01 11:26:20;;;;;;;6.70;1.42;;;22.50;56.50;;;;;;5097034;28;20051;-76
2022/08/01 11:29:16;;;;;;;6.32;1.67;;;22.60;55.40;;;;;;5063343;28;20075;-77
2022/08/01 11:31:41;;;;;;;4.07;1.42;;;22.60;56.00;;;;;;5110151;28;20128;-77
2022/08/01 11:34:07;;;;;;;6.93;1.50;;;22.70;55.10;;;;;;5076325;28;20524;-78
2022/08/01 11:36:33;;;;;;;6.05;1.70;;;22.80;55.80;;;;;;5110065;28;20036;-74
2022/08/01 11:39:05;;;;;;;3.40;1.17;;;22.90;56.10;;;;;;5110084;28;20062;-76
2022/08/01 11:41:33;;;;;;;8.35;1.42;;;23.10;55.40;;;;;;5110210;28;20101;-77
2022/08/01 11:44:00;;;;;;;2.85;1.42;;;23.20;54.80;;;;;;5109971;28;20039;-75
2022/08/01 11:46:45;;;;;;;7.50;1.83;;;23.10;54.00;;;;;;5110201;28;20039;-76
2022/08/01 11:49:45;;;;;;;6.05;1.50;;;23.10;55.50;;;;;;5076236;28;20102;-74
2022/08/01 11:52:29;;;;;;;7.05;1.95;;;23.30;55.10;;;;;;5076225;28;20044;-74
2022/08/01 11:55:02;;;;;;;6.80;1.70;;;23.40;54.40;;;;;;5109707;28;20528;-75
2022/08/01 11:57:30;;;;;;;4.90;1.67;;;23.50;54.10;;;;;;5109779;28;20047;-76
2022/08/01 11:59:58;;;;;;;6.25;1.77;;;23.60;54.30;;;;;;5109793;28;20070;-75
2022/08/01 12:02:27;;;;;;;5.47;1.50;;;23.70;54.30;;;;;;5109590;28;20476;-74
2022/08/01 12:04:55;;;;;;;5.35;1.38;;;23.80;53.40;;;;;;5109499;28;20047;-76
2022/08/01 12:07:22;;;;;;;5.18;1.83;;;23.80;53.10;;;;;;5075570;28;20046;-75
2022/08/01 12:09:56;;;;;;;4.10;1.48;;;23.90;53.10;;;;;;5075748;28;20040;-76
2022/08/01 12:12:21;;;;;;;6.18;1.60;;;23.90;53.10;;;;;;5109460;28;20036;-77
2022/08/01 12:14:56;;;;;;;6.63;1.40;;;24.00;52.20;;;;;;5109274;28;20039;-74
2022/08/01 12:17:29;;;;;;;8.73;2.15;;;24.10;52.20;;;;;;5109680;28;20040;-75
2022/08/01 12:19:55;;;;;;;6.28;1.90;;;24.00;51.80;;;;;;5075325;28;20080;-79
2022/08/01 12:22:23;;;;;;;4.90;1.20;;;24.00;51.20;;;;;;5075362;28;20074;-74
2022/08/01 12:24:49;;;;;;;3.63;1.17;;;24.00;51.70;;;;;;5109137;28;20047;-78
2022/08/01 12:27:36;;;;;;;6.05;1.33;;;24.20;51.30;;;;;;5075371;28;20067;-76
2022/08/01 12:30:04;;;;;;;6.13;1.73;;;24.30;51.30;;;;;;5092028;28;20044;-78
2022/08/01 12:32:36;;;;;;;2.60;1.20;;;24.20;50.00;;;;;;5108027;28;20403;-75
2022/08/01 12:35:10;;;;;;;8.10;1.58;;;24.20;49.60;;;;;;5109237;28;20396;-74
2022/08/01 12:37:37;;;;;;;4.85;1.30;;;24.30;50.40;;;;;;5109102;28;20492;-77
2022/08/01 12:40:24;;;;;;;4.35;1.25;;;24.40;49.80;;;;;;5108828;28;20044;-75
2022/08/01 12:42:52;;;;;;;4.65;1.20;;;24.40;49.90;;;;;;5075361;28;20047;-74
2022/08/01 12:45:36;;;;;;;7.35;1.88;;;24.40;49.60;;;;;;5108659;28;20488;-78
2022/08/01 12:48:11;;;;;;;6.63;1.45;;;24.40;48.90;;;;;;5108956;28;20040;-75
2022/08/01 12:50:41;;;;;;;4.95;1.55;;;24.40;46.80;;;;;;5109013;28;20044;-77